Downey, Idaho
Current Conditions -  °F | °C
As of 11:53 PM on Monday 20 Oct 2014 (Local Time) from KPIH Reporting Station
Scattered Clouds Scattered Clouds  
Wind Chill: 58°   Ceiling: Unl
Heat Index: 58°   Visibility: 10mi
Dew Point: 36°   Wind: 5mph
Humidity: 44%   Direction: 290°WNW
Pressure: 29.83"   Gusts: NA
Location:  42.43°N, 112.12°W
Report Text: KPIH 210553Z AUTO 29004KT 10SM SCT120 14/02 A2983 RMK AO2 RAE24 SLP067 P0000 60000 T01440022 10222 20139 58013
Loading
Personal Weather Stations






























Interactive Weather Map
Tropical Storm Tracking
New forecast layout! Learn more

10-Day Weather Forecast

Advertisements
Track Severe Weather on mobile